Main page
METAR-TAF:

METAR-TAF

Airports :

Spichenkovo Airport

Novokuznetsk, Russia

latitude: 53-44N, longitude: 087-11E, elevation: 308 m

Current weather observation

The report was made 40 minutes ago, at 05:00 UTC
Wind 10 kt from the Southwest
Temperature 23°C
Humidity 65%
Pressure 1003 hPa
Visibility 10 km or more
Broken clouds at a height of 4000 ft, Cumulonimbus.

METAR: UNWW 180500Z 23005MPS 9999 BKN040CB 23/16 Q1003 R19/210155 NOSIG RMK QFE725

Time: 12:40 (05:40 UTC)

Forecast

The report was made 40 minutes ago, at 05:00 UTC
Forecast valid from 18 at 06 UTC to 19 at 06 UTC
Wind 12 kt from the West/Southwest with gusts up to 29 kt
Visibility: 8000 m
Broken clouds at a height of 4000 ft, Cumulonimbus.
Temporary
from 18 at 06 UTC to 18 at 12 UTC
Wind 19 kt from the West/Northwest with gusts up to 39 kt
Visibility: 1000 m
Broken clouds at a height of 1600 ft, Cumulonimbus.
thunderstorm, rain,

TAF: UNWW 180500Z 1806/1906 24006G15MPS 8000 BKN040CB TX24/1806Z TN10/1821Z TEMPO 1806/1812 29010G20MPS 1000 TSRA BKN016CB

Weather observations and forecasts of more than 4000 airports (METAR and TAF reports).

The available stations are represented by yellow and red dots on the map.

Hover mouse over dot to see the name of the station.

Then click to see weather observations and forecasts.

To change the map : click on the green buttons with a black cross to zoom in, on the green button with a dash to zoom out, or on the green arrows for adjacent maps.


METAR-TAF: